SAA295 FAOR-FAUP
Flight info
| Callsign | SAA295 |
|---|---|
| Flight time | 1h 20m |
| Altitude | 30000 |
| Route | RAGUL1D RAGUL UZ6 UNGEK DCT SSV/N0399F280 UG465 UPV |
| Aircraft | A320/M-SDE3FGHIRWY/LB1 |
Departure
| Time | 2026-05-06 23:04 |
|---|---|
| Airport | O.R. Tambo International Airport (FAOR) |
Arrival
| Time | 2026-05-07 00:25 |
|---|---|
| Airport | Upington Airport (FAUP) |
| Time | Latitude | Longitude | Altitude | Speed | Heading |
|---|---|---|---|---|---|
| 2026-05-06 22:38 | -26.13289 | 28.23307 | 5527 ft | 0 kts | 276° |
| 2026-05-06 22:54 | -26.13290 | 28.23320 | 5527 ft | 4 kts | 277° |
| 2026-05-06 22:54 | -26.13294 | 28.23349 | 5534 ft | 4 kts | 285° |
| 2026-05-06 22:54 | -26.13303 | 28.23376 | 5530 ft | 4 kts | 308° |
| 2026-05-06 22:55 | -26.13320 | 28.23390 | 5531 ft | 2 kts | 5° |
| 2026-05-06 22:55 | -26.13322 | 28.23390 | 5531 ft | 0 kts | 5° |
| 2026-05-06 22:56 | -26.13311 | 28.23391 | 5530 ft | 3 kts | 5° |
| 2026-05-06 22:57 | -26.13283 | 28.23394 | 5529 ft | 6 kts | 6° |
| 2026-05-06 22:57 | -26.13229 | 28.23400 | 5526 ft | 10 kts | 6° |
| 2026-05-06 22:57 | -26.13142 | 28.23414 | 5525 ft | 14 kts | 17° |
| 2026-05-06 22:57 | -26.13113 | 28.23508 | 5524 ft | 14 kts | 97° |
| 2026-05-06 22:58 | -26.13126 | 28.23623 | 5524 ft | 16 kts | 98° |
| 2026-05-06 22:58 | -26.13085 | 28.23716 | 5523 ft | 15 kts | 20° |
| 2026-05-06 22:58 | -26.12976 | 28.23749 | 5522 ft | 17 kts | 15° |
| 2026-05-06 22:58 | -26.12848 | 28.23788 | 5520 ft | 21 kts | 15° |
| 2026-05-06 22:59 | -26.12701 | 28.23832 | 5519 ft | 23 kts | 15° |
| 2026-05-06 22:59 | -26.12535 | 28.23881 | 5516 ft | 26 kts | 15° |
| 2026-05-06 22:59 | -26.12353 | 28.23938 | 5514 ft | 28 kts | 15° |
| 2026-05-06 22:59 | -26.12154 | 28.24002 | 5510 ft | 31 kts | 15° |
| 2026-05-06 23:00 | -26.11943 | 28.24067 | 5507 ft | 33 kts | 15° |
| 2026-05-06 23:00 | -26.11718 | 28.24136 | 5504 ft | 34 kts | 16° |
| 2026-05-06 23:00 | -26.11484 | 28.24210 | 5501 ft | 36 kts | 15° |
| 2026-05-06 23:00 | -26.11241 | 28.24287 | 5497 ft | 37 kts | 18° |
| 2026-05-06 23:01 | -26.11043 | 28.24346 | 5494 ft | 23 kts | 15° |
| 2026-05-06 23:01 | -26.10920 | 28.24400 | 5491 ft | 15 kts | 46° |
| 2026-05-06 23:01 | -26.10895 | 28.24446 | 5490 ft | 0 kts | 62° |
| 2026-05-06 23:02 | -26.10895 | 28.24447 | 5490 ft | 1 kts | 62° |
| 2026-05-06 23:03 | -26.10868 | 28.24502 | 5489 ft | 16 kts | 61° |
| 2026-05-06 23:03 | -26.10883 | 28.24598 | 5488 ft | 7 kts | 165° |
| 2026-05-06 23:03 | -26.10979 | 28.24571 | 5490 ft | 32 kts | 194° |
| 2026-05-06 23:03 | -26.11406 | 28.24437 | 5501 ft | 94 kts | 195° |
| 2026-05-06 23:04 | -26.12205 | 28.24190 | 5510 ft | 142 kts | 195° |
| 2026-05-06 23:04 | -26.13275 | 28.23856 | 5653 ft | 170 kts | 197° |
| 2026-05-06 23:04 | -26.14402 | 28.23541 | 6512 ft | 165 kts | 201° |
| 2026-05-06 23:04 | -26.15497 | 28.23222 | 7227 ft | 160 kts | 201° |
| 2026-05-06 23:05 | -26.16558 | 28.22889 | 7819 ft | 158 kts | 204° |
| 2026-05-06 23:05 | -26.17615 | 28.22535 | 8386 ft | 158 kts | 204° |
| 2026-05-06 23:05 | -26.18676 | 28.22192 | 8921 ft | 163 kts | 204° |
| 2026-05-06 23:05 | -26.19835 | 28.21809 | 9179 ft | 183 kts | 204° |
| 2026-05-06 23:06 | -26.21085 | 28.21374 | 9537 ft | 198 kts | 204° |
| 2026-05-06 23:06 | -26.22457 | 28.20894 | 9813 ft | 219 kts | 202° |
| 2026-05-06 23:06 | -26.24011 | 28.20414 | 10104 ft | 244 kts | 201° |
| 2026-05-06 23:06 | -26.25721 | 28.19892 | 10461 ft | 265 kts | 201° |
| 2026-05-06 23:07 | -26.27552 | 28.19338 | 10921 ft | 281 kts | 200° |
| 2026-05-06 23:07 | -26.29377 | 28.18506 | 11324 ft | 289 kts | 220° |
| 2026-05-06 23:07 | -26.30623 | 28.16743 | 11717 ft | 297 kts | 249° |
| 2026-05-06 23:07 | -26.30947 | 28.14449 | 12276 ft | 305 kts | 270° |
| 2026-05-06 23:08 | -26.30721 | 28.12080 | 13017 ft | 309 kts | 277° |
| 2026-05-06 23:08 | -26.30342 | 28.09744 | 13769 ft | 312 kts | 279° |
| 2026-05-06 23:08 | -26.29941 | 28.07351 | 14387 ft | 317 kts | 278° |
| 2026-05-06 23:08 | -26.29600 | 28.04921 | 15007 ft | 319 kts | 275° |
| 2026-05-06 23:09 | -26.29369 | 28.02453 | 15575 ft | 323 kts | 273° |
| 2026-05-06 23:09 | -26.29222 | 27.99944 | 16181 ft | 325 kts | 272° |
| 2026-05-06 23:09 | -26.29110 | 27.97413 | 16785 ft | 329 kts | 271° |
| 2026-05-06 23:09 | -26.29120 | 27.94864 | 17404 ft | 331 kts | 263° |
| 2026-05-06 23:10 | -26.29607 | 27.92382 | 18005 ft | 335 kts | 252° |
| 2026-05-06 23:10 | -26.30557 | 27.89998 | 18588 ft | 339 kts | 245° |
| 2026-05-06 23:10 | -26.31615 | 27.87640 | 19155 ft | 341 kts | 246° |
| 2026-05-06 23:10 | -26.32676 | 27.85265 | 19741 ft | 343 kts | 246° |
| 2026-05-06 23:11 | -26.33738 | 27.82880 | 20336 ft | 344 kts | 247° |
| 2026-05-06 23:11 | -26.34804 | 27.80486 | 20913 ft | 346 kts | 247° |
| 2026-05-06 23:11 | -26.35876 | 27.78080 | 21480 ft | 348 kts | 247° |
| 2026-05-06 23:11 | -26.36960 | 27.75642 | 21938 ft | 352 kts | 247° |
| 2026-05-06 23:12 | -26.38052 | 27.73185 | 22416 ft | 355 kts | 248° |
| 2026-05-06 23:12 | -26.39138 | 27.70741 | 22917 ft | 358 kts | 248° |
| 2026-05-06 23:12 | -26.40243 | 27.68249 | 23419 ft | 360 kts | 248° |
| 2026-05-06 23:12 | -26.41360 | 27.65734 | 23881 ft | 363 kts | 248° |
| 2026-05-06 23:13 | -26.42484 | 27.63206 | 24303 ft | 364 kts | 248° |
| 2026-05-06 23:13 | -26.43609 | 27.60671 | 24733 ft | 366 kts | 249° |
| 2026-05-06 23:13 | -26.44688 | 27.58099 | 25166 ft | 364 kts | 253° |
| 2026-05-06 23:13 | -26.45409 | 27.55406 | 25594 ft | 362 kts | 260° |
| 2026-05-06 23:14 | -26.45812 | 27.53596 | 25879 ft | 363 kts | 260° |
| 2026-05-06 23:14 | -26.46625 | 27.49969 | 26459 ft | 365 kts | 260° |
| 2026-05-06 23:14 | -26.47239 | 27.47219 | 26896 ft | 366 kts | 259° |
| 2026-05-06 23:14 | -26.47855 | 27.44455 | 27297 ft | 368 kts | 260° |
| 2026-05-06 23:15 | -26.48476 | 27.41681 | 27697 ft | 370 kts | 260° |
| 2026-05-06 23:15 | -26.48889 | 27.39835 | 27961 ft | 370 kts | 260° |
| 2026-05-06 23:15 | -26.49724 | 27.36094 | 28529 ft | 372 kts | 260° |
| 2026-05-06 23:15 | -26.50350 | 27.33282 | 28927 ft | 374 kts | 260° |
| 2026-05-06 23:16 | -26.50764 | 27.31418 | 29205 ft | 375 kts | 260° |
| 2026-05-06 23:16 | -26.51599 | 27.27667 | 29731 ft | 377 kts | 261° |
| 2026-05-06 23:16 | -26.52235 | 27.24822 | 30085 ft | 379 kts | 261° |
| 2026-05-06 23:16 | -26.52866 | 27.21993 | 30146 ft | 368 kts | 261° |
| 2026-05-06 23:17 | -26.53476 | 27.19274 | 30148 ft | 356 kts | 261° |
| 2026-05-06 23:17 | -26.54460 | 27.14843 | 30151 ft | 353 kts | 261° |
| 2026-05-06 23:18 | -26.55634 | 27.09513 | 30149 ft | 354 kts | 260° |
| 2026-05-06 23:18 | -26.57007 | 27.03317 | 30150 ft | 354 kts | 260° |
| 2026-05-06 23:19 | -26.57988 | 26.98848 | 30147 ft | 353 kts | 261° |
| 2026-05-06 23:19 | -26.59149 | 26.93547 | 30151 ft | 354 kts | 261° |
| 2026-05-06 23:20 | -26.60321 | 26.88202 | 30156 ft | 354 kts | 261° |
| 2026-05-06 23:20 | -26.61495 | 26.82851 | 30164 ft | 355 kts | 260° |
| 2026-05-06 23:21 | -26.62667 | 26.77489 | 30163 ft | 356 kts | 260° |
| 2026-05-06 23:21 | -26.63840 | 26.72157 | 30158 ft | 356 kts | 260° |
| 2026-05-06 23:22 | -26.65014 | 26.66782 | 30156 ft | 356 kts | 260° |
| 2026-05-06 23:22 | -26.66178 | 26.61401 | 30158 ft | 356 kts | 260° |
| 2026-05-06 23:23 | -26.67343 | 26.56021 | 30162 ft | 356 kts | 260° |
| 2026-05-06 23:23 | -26.68501 | 26.50671 | 30156 ft | 357 kts | 259° |
| 2026-05-06 23:24 | -26.69665 | 26.45277 | 30152 ft | 357 kts | 259° |
| 2026-05-06 23:24 | -26.70831 | 26.39873 | 30152 ft | 357 kts | 259° |
| 2026-05-06 23:25 | -26.71997 | 26.34468 | 30156 ft | 358 kts | 259° |
| 2026-05-06 23:25 | -26.73155 | 26.29097 | 30158 ft | 357 kts | 259° |
| 2026-05-06 23:26 | -26.74317 | 26.23691 | 30163 ft | 358 kts | 259° |
| 2026-05-06 23:26 | -26.75482 | 26.18273 | 30155 ft | 359 kts | 259° |
| 2026-05-06 23:27 | -26.76637 | 26.12843 | 30153 ft | 359 kts | 259° |
| 2026-05-06 23:27 | -26.77783 | 26.07440 | 30154 ft | 359 kts | 259° |
| 2026-05-06 23:28 | -26.78945 | 26.02001 | 30157 ft | 359 kts | 259° |
| 2026-05-06 23:28 | -26.80100 | 25.96560 | 30158 ft | 359 kts | 259° |
| 2026-05-06 23:29 | -26.81255 | 25.91111 | 30163 ft | 360 kts | 258° |
| 2026-05-06 23:29 | -26.82406 | 25.85699 | 30160 ft | 360 kts | 258° |
| 2026-05-06 23:30 | -26.83557 | 25.80244 | 30159 ft | 360 kts | 259° |
| 2026-05-06 23:30 | -26.84708 | 25.74786 | 30160 ft | 360 kts | 259° |
| 2026-05-06 23:31 | -26.85854 | 25.69326 | 30157 ft | 360 kts | 259° |
| 2026-05-06 23:31 | -26.86997 | 25.63905 | 30157 ft | 360 kts | 258° |
| 2026-05-06 23:32 | -26.88141 | 25.58438 | 30153 ft | 361 kts | 258° |
| 2026-05-06 23:32 | -26.89285 | 25.52958 | 30147 ft | 361 kts | 258° |
| 2026-05-06 23:33 | -26.90433 | 25.47475 | 30152 ft | 362 kts | 258° |
| 2026-05-06 23:33 | -26.91933 | 25.42085 | 30153 ft | 363 kts | 253° |
| 2026-05-06 23:34 | -26.93599 | 25.36788 | 30157 ft | 363 kts | 253° |
| 2026-05-06 23:34 | -26.95269 | 25.31448 | 30151 ft | 363 kts | 253° |
| 2026-05-06 23:35 | -26.96937 | 25.26103 | 30154 ft | 363 kts | 253° |
| 2026-05-06 23:35 | -26.98606 | 25.20753 | 30147 ft | 364 kts | 253° |
| 2026-05-06 23:36 | -27.00268 | 25.15435 | 30150 ft | 364 kts | 253° |
| 2026-05-06 23:36 | -27.01938 | 25.10077 | 30151 ft | 364 kts | 253° |
| 2026-05-06 23:37 | -27.03603 | 25.04719 | 30149 ft | 364 kts | 253° |
| 2026-05-06 23:37 | -27.05252 | 24.99393 | 30157 ft | 364 kts | 253° |
| 2026-05-06 23:38 | -27.06908 | 24.94034 | 30159 ft | 363 kts | 253° |
| 2026-05-06 23:38 | -27.08562 | 24.88684 | 30152 ft | 363 kts | 253° |
| 2026-05-06 23:39 | -27.10210 | 24.83330 | 30152 ft | 363 kts | 253° |
| 2026-05-06 23:39 | -27.11850 | 24.78019 | 30151 ft | 362 kts | 253° |
| 2026-05-06 23:40 | -27.13501 | 24.72675 | 30151 ft | 362 kts | 253° |
| 2026-05-06 23:40 | -27.15147 | 24.67333 | 30148 ft | 362 kts | 253° |
| 2026-05-06 23:41 | -27.16792 | 24.61986 | 30136 ft | 362 kts | 253° |
| 2026-05-06 23:41 | -27.18428 | 24.56636 | 30136 ft | 362 kts | 253° |
| 2026-05-06 23:42 | -27.20048 | 24.51320 | 30138 ft | 362 kts | 253° |
| 2026-05-06 23:42 | -27.21683 | 24.45967 | 30139 ft | 362 kts | 253° |
| 2026-05-06 23:43 | -27.23316 | 24.40610 | 30141 ft | 362 kts | 253° |
| 2026-05-06 23:43 | -27.24948 | 24.35257 | 30154 ft | 362 kts | 253° |
| 2026-05-06 23:44 | -27.26565 | 24.29941 | 30150 ft | 362 kts | 253° |
| 2026-05-06 23:44 | -27.28188 | 24.24594 | 30150 ft | 361 kts | 253° |
| 2026-05-06 23:45 | -27.29808 | 24.19246 | 30145 ft | 361 kts | 253° |
| 2026-05-06 23:45 | -27.31432 | 24.13900 | 30144 ft | 361 kts | 253° |
| 2026-05-06 23:46 | -27.33036 | 24.08595 | 30154 ft | 361 kts | 253° |
| 2026-05-06 23:46 | -27.34643 | 24.03245 | 30143 ft | 361 kts | 253° |
| 2026-05-06 23:47 | -27.36253 | 23.97895 | 30148 ft | 361 kts | 253° |
| 2026-05-06 23:47 | -27.37866 | 23.92543 | 30150 ft | 362 kts | 253° |
| 2026-05-06 23:48 | -27.39473 | 23.87215 | 30171 ft | 362 kts | 252° |
| 2026-05-06 23:48 | -27.41090 | 23.81837 | 29817 ft | 363 kts | 252° |
| 2026-05-06 23:48 | -27.41898 | 23.79137 | 29116 ft | 364 kts | 252° |
| 2026-05-06 23:49 | -27.42700 | 23.76444 | 28888 ft | 366 kts | 252° |
| 2026-05-06 23:49 | -27.43507 | 23.73717 | 28343 ft | 368 kts | 252° |
| 2026-05-06 23:49 | -27.44330 | 23.70966 | 27491 ft | 374 kts | 252° |
| 2026-05-06 23:49 | -27.45169 | 23.68175 | 26659 ft | 379 kts | 252° |
| 2026-05-06 23:50 | -27.46006 | 23.65383 | 25851 ft | 384 kts | 252° |
| 2026-05-06 23:50 | -27.47727 | 23.59613 | 24203 ft | 393 kts | 252° |
| 2026-05-06 23:50 | -27.48598 | 23.56675 | 23306 ft | 398 kts | 252° |
| 2026-05-06 23:51 | -27.49478 | 23.53703 | 22320 ft | 402 kts | 252° |
| 2026-05-06 23:51 | -27.50365 | 23.50704 | 21348 ft | 405 kts | 252° |
| 2026-05-06 23:51 | -27.51260 | 23.47684 | 20560 ft | 406 kts | 252° |
| 2026-05-06 23:51 | -27.52146 | 23.44692 | 20282 ft | 410 kts | 252° |
| 2026-05-06 23:52 | -27.53055 | 23.41635 | 20122 ft | 413 kts | 252° |
| 2026-05-06 23:52 | -27.53971 | 23.38564 | 20151 ft | 415 kts | 252° |
| 2026-05-06 23:52 | -27.54889 | 23.35471 | 20157 ft | 416 kts | 252° |
| 2026-05-06 23:52 | -27.55801 | 23.32377 | 20157 ft | 416 kts | 252° |
| 2026-05-06 23:53 | -27.56713 | 23.29278 | 20158 ft | 417 kts | 252° |
| 2026-05-06 23:53 | -27.57627 | 23.26180 | 20157 ft | 416 kts | 252° |
| 2026-05-06 23:53 | -27.58539 | 23.23084 | 20163 ft | 416 kts | 252° |
| 2026-05-06 23:53 | -27.59447 | 23.20001 | 19820 ft | 412 kts | 252° |
| 2026-05-06 23:54 | -27.60322 | 23.17026 | 19592 ft | 396 kts | 252° |
| 2026-05-06 23:54 | -27.61170 | 23.14138 | 19474 ft | 378 kts | 252° |
| 2026-05-06 23:54 | -27.61968 | 23.11416 | 19343 ft | 353 kts | 253° |
| 2026-05-06 23:54 | -27.62713 | 23.08870 | 19225 ft | 332 kts | 253° |
| 2026-05-06 23:55 | -27.63424 | 23.06440 | 18842 ft | 322 kts | 253° |
| 2026-05-06 23:55 | -27.64121 | 23.04057 | 18299 ft | 319 kts | 253° |
| 2026-05-06 23:55 | -27.64813 | 23.01694 | 17691 ft | 315 kts | 252° |
| 2026-05-06 23:55 | -27.65611 | 22.99410 | 17141 ft | 312 kts | 245° |
| 2026-05-06 23:56 | -27.66559 | 22.97265 | 16597 ft | 307 kts | 245° |
| 2026-05-06 23:56 | -27.67502 | 22.95123 | 16085 ft | 303 kts | 245° |
| 2026-05-06 23:56 | -27.68430 | 22.93004 | 15572 ft | 299 kts | 245° |
| 2026-05-06 23:56 | -27.69340 | 22.90919 | 15100 ft | 294 kts | 245° |
| 2026-05-06 23:57 | -27.70223 | 22.88895 | 15134 ft | 287 kts | 245° |
| 2026-05-06 23:57 | -27.71118 | 22.86843 | 15156 ft | 294 kts | 245° |
| 2026-05-06 23:57 | -27.72024 | 22.84770 | 15166 ft | 295 kts | 245° |
| 2026-05-06 23:57 | -27.72930 | 22.82693 | 15169 ft | 295 kts | 245° |
| 2026-05-06 23:58 | -27.73827 | 22.80639 | 15164 ft | 295 kts | 245° |
| 2026-05-06 23:58 | -27.74735 | 22.78561 | 15166 ft | 295 kts | 245° |
| 2026-05-06 23:58 | -27.75643 | 22.76478 | 15168 ft | 297 kts | 245° |
| 2026-05-06 23:58 | -27.76553 | 22.74392 | 15160 ft | 296 kts | 245° |
| 2026-05-06 23:59 | -27.77465 | 22.72302 | 15167 ft | 297 kts | 245° |
| 2026-05-06 23:59 | -27.78380 | 22.70208 | 15162 ft | 297 kts | 245° |
| 2026-05-06 23:59 | -27.79294 | 22.68115 | 15168 ft | 297 kts | 245° |
| 2026-05-06 23:59 | -27.80206 | 22.66023 | 15163 ft | 297 kts | 245° |
| 2026-05-07 00:00 | -27.81118 | 22.63929 | 15165 ft | 297 kts | 245° |
| 2026-05-07 00:00 | -27.82017 | 22.61861 | 15173 ft | 297 kts | 245° |
| 2026-05-07 00:00 | -27.82926 | 22.59765 | 15164 ft | 297 kts | 245° |
| 2026-05-07 00:00 | -27.83837 | 22.57664 | 15180 ft | 297 kts | 245° |
| 2026-05-07 00:01 | -27.84747 | 22.55566 | 15174 ft | 297 kts | 245° |
| 2026-05-07 00:01 | -27.85649 | 22.53485 | 15170 ft | 298 kts | 245° |
| 2026-05-07 00:01 | -27.86559 | 22.51385 | 15173 ft | 297 kts | 245° |
| 2026-05-07 00:01 | -27.87471 | 22.49288 | 15175 ft | 297 kts | 245° |
| 2026-05-07 00:02 | -27.88383 | 22.47188 | 15176 ft | 297 kts | 245° |
| 2026-05-07 00:02 | -27.89293 | 22.45089 | 15175 ft | 298 kts | 244° |
| 2026-05-07 00:02 | -27.90190 | 22.43013 | 15176 ft | 298 kts | 245° |
| 2026-05-07 00:02 | -27.91100 | 22.40907 | 15182 ft | 298 kts | 245° |
| 2026-05-07 00:03 | -27.92010 | 22.38799 | 15187 ft | 298 kts | 245° |
| 2026-05-07 00:03 | -27.92919 | 22.36692 | 15177 ft | 298 kts | 245° |
| 2026-05-07 00:03 | -27.93829 | 22.34586 | 15182 ft | 298 kts | 244° |
| 2026-05-07 00:03 | -27.94738 | 22.32477 | 15178 ft | 298 kts | 244° |
| 2026-05-07 00:04 | -27.95647 | 22.30370 | 15177 ft | 298 kts | 243° |
| 2026-05-07 00:04 | -27.96568 | 22.28267 | 15179 ft | 298 kts | 243° |
| 2026-05-07 00:04 | -27.97468 | 22.26191 | 15173 ft | 298 kts | 244° |
| 2026-05-07 00:04 | -27.98375 | 22.24079 | 15178 ft | 298 kts | 244° |
| 2026-05-07 00:05 | -27.99278 | 22.21970 | 15179 ft | 298 kts | 244° |
| 2026-05-07 00:05 | -28.00181 | 22.19859 | 15179 ft | 298 kts | 244° |
| 2026-05-07 00:05 | -28.01084 | 22.17750 | 15176 ft | 298 kts | 244° |
| 2026-05-07 00:05 | -28.01989 | 22.15641 | 15175 ft | 298 kts | 244° |
| 2026-05-07 00:06 | -28.02895 | 22.13530 | 15182 ft | 298 kts | 244° |
| 2026-05-07 00:06 | -28.03801 | 22.11418 | 15182 ft | 299 kts | 244° |
| 2026-05-07 00:06 | -28.04698 | 22.09328 | 15176 ft | 299 kts | 244° |
| 2026-05-07 00:06 | -28.05609 | 22.07206 | 15180 ft | 300 kts | 244° |
| 2026-05-07 00:07 | -28.06518 | 22.05087 | 15182 ft | 300 kts | 244° |
| 2026-05-07 00:07 | -28.07428 | 22.02962 | 15185 ft | 300 kts | 244° |
| 2026-05-07 00:07 | -28.08338 | 22.00840 | 15176 ft | 300 kts | 244° |
| 2026-05-07 00:07 | -28.09248 | 21.98714 | 15180 ft | 300 kts | 244° |
| 2026-05-07 00:08 | -28.10157 | 21.96590 | 15179 ft | 300 kts | 244° |
| 2026-05-07 00:08 | -28.11066 | 21.94463 | 15062 ft | 300 kts | 244° |
| 2026-05-07 00:08 | -28.11972 | 21.92342 | 14682 ft | 299 kts | 243° |
| 2026-05-07 00:08 | -28.12863 | 21.90256 | 14331 ft | 297 kts | 243° |
| 2026-05-07 00:09 | -28.13762 | 21.88152 | 14024 ft | 295 kts | 243° |
| 2026-05-07 00:09 | -28.14646 | 21.86079 | 13760 ft | 289 kts | 243° |
| 2026-05-07 00:09 | -28.15516 | 21.84039 | 13442 ft | 286 kts | 243° |
| 2026-05-07 00:09 | -28.16373 | 21.82027 | 12922 ft | 284 kts | 243° |
| 2026-05-07 00:10 | -28.17231 | 21.80015 | 12571 ft | 283 kts | 243° |
| 2026-05-07 00:10 | -28.18084 | 21.78012 | 12206 ft | 282 kts | 243° |
| 2026-05-07 00:10 | -28.18935 | 21.76015 | 11852 ft | 281 kts | 243° |
| 2026-05-07 00:10 | -28.19770 | 21.74052 | 11516 ft | 279 kts | 243° |
| 2026-05-07 00:11 | -28.20608 | 21.72080 | 11077 ft | 278 kts | 242° |
| 2026-05-07 00:11 | -28.21445 | 21.70112 | 10670 ft | 276 kts | 242° |
| 2026-05-07 00:11 | -28.22274 | 21.68159 | 10251 ft | 274 kts | 242° |
| 2026-05-07 00:11 | -28.23099 | 21.66216 | 9845 ft | 272 kts | 242° |
| 2026-05-07 00:12 | -28.23910 | 21.64305 | 9625 ft | 263 kts | 242° |
| 2026-05-07 00:12 | -28.24681 | 21.62481 | 9477 ft | 251 kts | 242° |
| 2026-05-07 00:12 | -28.25431 | 21.60710 | 9125 ft | 247 kts | 242° |
| 2026-05-07 00:12 | -28.26166 | 21.58978 | 8728 ft | 246 kts | 242° |
| 2026-05-07 00:13 | -28.26908 | 21.57231 | 8341 ft | 245 kts | 242° |
| 2026-05-07 00:13 | -28.27637 | 21.55513 | 8123 ft | 237 kts | 242° |
| 2026-05-07 00:13 | -28.28343 | 21.53844 | 7827 ft | 234 kts | 242° |
| 2026-05-07 00:13 | -28.29048 | 21.52185 | 7537 ft | 233 kts | 242° |
| 2026-05-07 00:14 | -28.29749 | 21.50531 | 7247 ft | 232 kts | 242° |
| 2026-05-07 00:14 | -28.30445 | 21.48882 | 6956 ft | 232 kts | 242° |
| 2026-05-07 00:14 | -28.31141 | 21.47235 | 6662 ft | 231 kts | 242° |
| 2026-05-07 00:14 | -28.31826 | 21.45614 | 6357 ft | 230 kts | 242° |
| 2026-05-07 00:15 | -28.32513 | 21.43982 | 6076 ft | 228 kts | 242° |
| 2026-05-07 00:15 | -28.33194 | 21.42362 | 5825 ft | 225 kts | 242° |
| 2026-05-07 00:15 | -28.33852 | 21.40798 | 5694 ft | 213 kts | 242° |
| 2026-05-07 00:15 | -28.34473 | 21.39321 | 5458 ft | 204 kts | 241° |
| 2026-05-07 00:16 | -28.35083 | 21.37875 | 5254 ft | 201 kts | 241° |
| 2026-05-07 00:16 | -28.35683 | 21.36451 | 5064 ft | 199 kts | 241° |
| 2026-05-07 00:16 | -28.36284 | 21.35034 | 5008 ft | 199 kts | 241° |
| 2026-05-07 00:16 | -28.36876 | 21.33634 | 5011 ft | 199 kts | 241° |
| 2026-05-07 00:17 | -28.37475 | 21.32216 | 5014 ft | 200 kts | 241° |
| 2026-05-07 00:17 | -28.38075 | 21.30789 | 5010 ft | 200 kts | 241° |
| 2026-05-07 00:17 | -28.38673 | 21.29367 | 5012 ft | 199 kts | 241° |
| 2026-05-07 00:17 | -28.39270 | 21.27946 | 5021 ft | 199 kts | 240° |
| 2026-05-07 00:18 | -28.39962 | 21.26613 | 5005 ft | 194 kts | 220° |
| 2026-05-07 00:18 | -28.41194 | 21.26153 | 5033 ft | 195 kts | 171° |
| 2026-05-07 00:18 | -28.42471 | 21.26750 | 5050 ft | 202 kts | 160° |
| 2026-05-07 00:18 | -28.43750 | 21.27382 | 4956 ft | 199 kts | 164° |
| 2026-05-07 00:19 | -28.45026 | 21.27914 | 4965 ft | 198 kts | 164° |
| 2026-05-07 00:19 | -28.46325 | 21.28451 | 4963 ft | 200 kts | 165° |
| 2026-05-07 00:19 | -28.47649 | 21.28884 | 4869 ft | 197 kts | 170° |
| 2026-05-07 00:19 | -28.48978 | 21.29248 | 4924 ft | 198 kts | 169° |
| 2026-05-07 00:20 | -28.50315 | 21.29612 | 4945 ft | 198 kts | 170° |
| 2026-05-07 00:20 | -28.51656 | 21.29964 | 4964 ft | 198 kts | 170° |
| 2026-05-07 00:20 | -28.53000 | 21.30317 | 4970 ft | 198 kts | 171° |
| 2026-05-07 00:20 | -28.54341 | 21.30687 | 4979 ft | 200 kts | 164° |
| 2026-05-07 00:21 | -28.55384 | 21.31707 | 4956 ft | 214 kts | 121° |
| 2026-05-07 00:21 | -28.55451 | 21.33389 | 4769 ft | 220 kts | 70° |
| 2026-05-07 00:21 | -28.54402 | 21.34577 | 4569 ft | 216 kts | 17° |
| 2026-05-07 00:21 | -28.52961 | 21.34568 | 4513 ft | 207 kts | 338° |
| 2026-05-07 00:22 | -28.51652 | 21.33951 | 4558 ft | 204 kts | 332° |
| 2026-05-07 00:22 | -28.50326 | 21.33345 | 4689 ft | 207 kts | 334° |
| 2026-05-07 00:22 | -28.49031 | 21.32601 | 4651 ft | 214 kts | 320° |
| 2026-05-07 00:22 | -28.47873 | 21.31640 | 4494 ft | 198 kts | 321° |
| 2026-05-07 00:23 | -28.46828 | 21.30750 | 4220 ft | 179 kts | 313° |
| 2026-05-07 00:23 | -28.45932 | 21.29876 | 3954 ft | 167 kts | 314° |
| 2026-05-07 00:23 | -28.44984 | 21.29140 | 3626 ft | 163 kts | 329° |
| 2026-05-07 00:23 | -28.43986 | 21.28606 | 3357 ft | 157 kts | 332° |
| 2026-05-07 00:24 | -28.43021 | 21.28075 | 3086 ft | 154 kts | 330° |
| 2026-05-07 00:24 | -28.42056 | 21.27514 | 2870 ft | 155 kts | 330° |
| 2026-05-07 00:24 | -28.41155 | 21.26994 | 2771 ft | 130 kts | 334° |
| 2026-05-07 00:24 | -28.40479 | 21.26613 | 2756 ft | 95 kts | 334° |
| 2026-05-07 00:25 | -28.40187 | 21.26440 | 2754 ft | 10 kts | 300° |
| 2026-05-07 00:25 | -28.40205 | 21.26360 | 2756 ft | 12 kts | 241° |
| 2026-05-07 00:25 | -28.40251 | 21.26272 | 2754 ft | 15 kts | 239° |
| 2026-05-07 00:25 | -28.40309 | 21.26160 | 2757 ft | 18 kts | 239° |
| 2026-05-07 00:26 | -28.40376 | 21.26032 | 2759 ft | 20 kts | 239° |
| 2026-05-07 00:26 | -28.40462 | 21.25902 | 2761 ft | 19 kts | 200° |
| 2026-05-07 00:26 | -28.40595 | 21.25913 | 2760 ft | 21 kts | 171° |
| 2026-05-07 00:26 | -28.40759 | 21.25944 | 2753 ft | 27 kts | 170° |
| 2026-05-07 00:27 | -28.40820 | 21.25909 | 2751 ft | 4 kts | 291° |
| 2026-05-07 00:27 | -28.40810 | 21.25884 | 2753 ft | 5 kts | 291° |
| 2026-05-07 00:27 | -28.40811 | 21.25832 | 2754 ft | 8 kts | 255° |
| 2026-05-07 00:27 | -28.40822 | 21.25774 | 2757 ft | 6 kts | 259° |
| 2026-05-07 00:28 | -28.40828 | 21.25739 | 2759 ft | 3 kts | 254° |
| 2026-05-07 00:28 | -28.40830 | 21.25733 | 2760 ft | 0 kts | 252° |
| 2026-05-07 00:30 | -28.40830 | 21.25732 | 2760 ft | 0 kts | 252° |
| 2026-05-07 00:30 | -28.40832 | 21.25726 | 2761 ft | 0 kts | 252° |
| 2026-05-07 00:30 | -28.40833 | 21.25725 | 2761 ft | 1 kts | 252° |
| 2026-05-07 00:31 | -28.40839 | 21.25716 | 2761 ft | 3 kts | 224° |
| 2026-05-07 00:31 | -28.40852 | 21.25688 | 2763 ft | 3 kts | 254° |
| 2026-05-07 00:31 | -28.40855 | 21.25676 | 2764 ft | 0 kts | 255° |
| 2026-05-07 00:31 | -28.40855 | 21.25673 | 2764 ft | 0 kts | 255° |